sensor_id;sensor_type;location;lat;lon;timestamp;pressure;altitude;pressure_sealevel;temperature;humidity
14067;BME280;7108;42.684;23.350;2023-04-05T00:01:21;94901.75;;;1.06;100.00
14067;BME280;7108;42.684;23.350;2023-04-05T00:03:53;94906.00;;;1.16;100.00
14067;BME280;7108;42.684;23.350;2023-04-05T00:06:19;94896.97;;;1.25;100.00
14067;BME280;7108;42.684;23.350;2023-04-05T00:08:57;94897.28;;;1.24;100.00
14067;BME280;7108;42.684;23.350;2023-04-05T00:11:23;94889.25;;;1.07;100.00
14067;BME280;7108;42.684;23.350;2023-04-05T00:13:49;94883.81;;;1.12;100.00
14067;BME280;7108;42.684;23.350;2023-04-05T00:16:15;94891.47;;;1.13;100.00
14067;BME280;7108;42.684;23.350;2023-04-05T00:18:42;94892.22;;;1.05;100.00
14067;BME280;7108;42.684;23.350;2023-04-05T00:21:16;94890.25;;;1.19;100.00
14067;BME280;7108;42.684;23.350;2023-04-05T00:23:42;94883.41;;;1.27;100.00
14067;BME280;7108;42.684;23.350;2023-04-05T00:26:10;94885.78;;;1.36;100.00
14067;BME280;7108;42.684;23.350;2023-04-05T00:28:36;94884.50;;;1.26;100.00
14067;BME280;7108;42.684;23.350;2023-04-05T00:31:03;94881.34;;;1.24;100.00
14067;BME280;7108;42.684;23.350;2023-04-05T00:33:28;94891.66;;;1.25;100.00
14067;BME280;7108;42.684;23.350;2023-04-05T00:35:54;94893.53;;;1.25;100.00
14067;BME280;7108;42.684;23.350;2023-04-05T00:38:19;94894.13;;;1.13;100.00
14067;BME280;7108;42.684;23.350;2023-04-05T00:40:45;94897.41;;;1.19;100.00
14067;BME280;7108;42.684;23.350;2023-04-05T00:43:10;94893.41;;;1.29;100.00
14067;BME280;7108;42.684;23.350;2023-04-05T00:45:35;94892.94;;;1.36;100.00
14067;BME280;7108;42.684;23.350;2023-04-05T00:48:01;94897.94;;;1.37;100.00
14067;BME280;7108;42.684;23.350;2023-04-05T00:50:27;94889.34;;;1.32;100.00
14067;BME280;7108;42.684;23.350;2023-04-05T00:52:56;94891.03;;;1.20;100.00
14067;BME280;7108;42.684;23.350;2023-04-05T00:55:23;94896.06;;;1.29;100.00
14067;BME280;7108;42.684;23.350;2023-04-05T00:57:48;94904.31;;;1.28;100.00
14067;BME280;7108;42.684;23.350;2023-04-05T01:00:14;94891.97;;;1.24;100.00
14067;BME280;7108;42.684;23.350;2023-04-05T01:02:44;94903.09;;;1.34;100.00
14067;BME280;7108;42.684;23.350;2023-04-05T01:08:06;94896.66;;;1.18;100.00
14067;BME280;7108;42.684;23.350;2023-04-05T01:10:35;94902.72;;;1.19;100.00
14067;BME280;7108;42.684;23.350;2023-04-05T01:13:04;94904.47;;;1.23;100.00
14067;BME280;7108;42.684;23.350;2023-04-05T01:15:30;94903.97;;;1.21;100.00
14067;BME280;7108;42.684;23.350;2023-04-05T01:17:56;94908.16;;;1.14;100.00
14067;BME280;7108;42.684;23.350;2023-04-05T01:20:22;94897.19;;;1.07;100.00
14067;BME280;7108;42.684;23.350;2023-04-05T01:36:43;94898.56;;;1.34;100.00
14067;BME280;7108;42.684;23.350;2023-04-05T01:39:13;94907.75;;;1.28;100.00
14067;BME280;7108;42.684;23.350;2023-04-05T01:41:39;94902.31;;;1.33;100.00
14067;BME280;7108;42.684;23.350;2023-04-05T01:44:05;94902.41;;;1.20;100.00
14067;BME280;7108;42.684;23.350;2023-04-05T01:46:31;94907.72;;;1.20;100.00
14067;BME280;7108;42.684;23.350;2023-04-05T01:48:56;94893.81;;;1.15;100.00
14067;BME280;7108;42.684;23.350;2023-04-05T01:51:22;94909.59;;;1.20;100.00
14067;BME280;7108;42.684;23.350;2023-04-05T01:53:47;94905.00;;;1.03;100.00
14067;BME280;7108;42.684;23.350;2023-04-05T01:56:13;94904.25;;;1.11;100.00
14067;BME280;7108;42.684;23.350;2023-04-05T01:58:38;94907.09;;;1.15;100.00
14067;BME280;7108;42.684;23.350;2023-04-05T02:01:04;94902.81;;;1.05;100.00
14067;BME280;7108;42.684;23.350;2023-04-05T02:03:30;94907.69;;;1.12;100.00
14067;BME280;7108;42.684;23.350;2023-04-05T02:05:56;94903.47;;;1.11;100.00
14067;BME280;7108;42.684;23.350;2023-04-05T02:08:21;94900.97;;;1.06;100.00
14067;BME280;7108;42.684;23.350;2023-04-05T02:10:46;94899.34;;;0.96;100.00
14067;BME280;7108;42.684;23.350;2023-04-05T02:13:12;94913.91;;;1.07;100.00
14067;BME280;7108;42.684;23.350;2023-04-05T02:15:38;94909.88;;;1.10;100.00
14067;BME280;7108;42.684;23.350;2023-04-05T02:18:03;94900.47;;;1.04;100.00
14067;BME280;7108;42.684;23.350;2023-04-05T02:20:29;94908.44;;;1.04;100.00
14067;BME280;7108;42.684;23.350;2023-04-05T02:22:55;94902.38;;;1.03;100.00
14067;BME280;7108;42.684;23.350;2023-04-05T02:25:21;94899.84;;;1.07;100.00
14067;BME280;7108;42.684;23.350;2023-04-05T02:27:47;94904.22;;;1.03;100.00
14067;BME280;7108;42.684;23.350;2023-04-05T02:30:13;94910.63;;;1.10;100.00
14067;BME280;7108;42.684;23.350;2023-04-05T02:32:39;94909.91;;;1.18;100.00
14067;BME280;7108;42.684;23.350;2023-04-05T02:35:07;94907.44;;;1.22;100.00
14067;BME280;7108;42.684;23.350;2023-04-05T02:37:33;94909.78;;;1.23;100.00
14067;BME280;7108;42.684;23.350;2023-04-05T02:39:59;94914.75;;;1.25;100.00
14067;BME280;7108;42.684;23.350;2023-04-05T02:42:25;94910.09;;;1.22;100.00
14067;BME280;7108;42.684;23.350;2023-04-05T02:44:51;94902.66;;;1.02;100.00
14067;BME280;7108;42.684;23.350;2023-04-05T02:47:16;94912.00;;;0.99;100.00
14067;BME280;7108;42.684;23.350;2023-04-05T02:49:49;94894.69;;;1.02;100.00
14067;BME280;7108;42.684;23.350;2023-04-05T02:52:15;94905.00;;;1.03;100.00
14067;BME280;7108;42.684;23.350;2023-04-05T02:54:41;94895.03;;;1.09;100.00
14067;BME280;7108;42.684;23.350;2023-04-05T02:57:06;94905.38;;;1.19;100.00
14067;BME280;7108;42.684;23.350;2023-04-05T02:59:36;94900.69;;;1.16;100.00
14067;BME280;7108;42.684;23.350;2023-04-05T03:02:03;94911.56;;;1.06;100.00
14067;BME280;7108;42.684;23.350;2023-04-05T03:04:28;94912.22;;;1.11;100.00
14067;BME280;7108;42.684;23.350;2023-04-05T03:06:54;94907.69;;;1.12;100.00
14067;BME280;7108;42.684;23.350;2023-04-05T03:09:21;94909.25;;;1.13;100.00
14067;BME280;7108;42.684;23.350;2023-04-05T03:11:47;94910.31;;;1.03;100.00
14067;BME280;7108;42.684;23.350;2023-04-05T03:14:12;94904.22;;;1.03;100.00
14067;BME280;7108;42.684;23.350;2023-04-05T03:16:38;94905.78;;;1.04;100.00
14067;BME280;7108;42.684;23.350;2023-04-05T03:19:04;94899.53;;;1.00;100.00
14067;BME280;7108;42.684;23.350;2023-04-05T03:21:31;94906.09;;;1.02;100.00
14067;BME280;7108;42.684;23.350;2023-04-05T03:23:58;94923.44;;;1.08;100.00
14067;BME280;7108;42.684;23.350;2023-04-05T03:26:24;94912.97;;;1.12;100.00
14067;BME280;7108;42.684;23.350;2023-04-05T03:28:50;94910.47;;;1.07;100.00
14067;BME280;7108;42.684;23.350;2023-04-05T03:31:15;94912.31;;;0.98;100.00
14067;BME280;7108;42.684;23.350;2023-04-05T03:33:41;94903.00;;;1.09;100.00
14067;BME280;7108;42.684;23.350;2023-04-05T03:36:07;94910.03;;;1.13;100.00
14067;BME280;7108;42.684;23.350;2023-04-05T03:38:33;94911.56;;;1.06;100.00
14067;BME280;7108;42.684;23.350;2023-04-05T03:40:58;94909.38;;;1.08;100.00
14067;BME280;7108;42.684;23.350;2023-04-05T03:43:23;94915.94;;;1.10;100.00
14067;BME280;7108;42.684;23.350;2023-04-05T03:45:49;94915.94;;;1.10;100.00
14067;BME280;7108;42.684;23.350;2023-04-05T03:48:15;94918.91;;;1.09;100.00
14067;BME280;7108;42.684;23.350;2023-04-05T03:50:47;94914.09;;;1.11;100.00
14067;BME280;7108;42.684;23.350;2023-04-05T03:53:12;94918.88;;;1.00;100.00
14067;BME280;7108;42.684;23.350;2023-04-05T03:55:38;94924.97;;;1.01;100.00
14067;BME280;7108;42.684;23.350;2023-04-05T03:58:04;94922.19;;;1.06;100.00
14067;BME280;7108;42.684;23.350;2023-04-05T04:00:30;94926.72;;;1.14;100.00
14067;BME280;7108;42.684;23.350;2023-04-05T04:02:55;94936.22;;;1.06;100.00
14067;BME280;7108;42.684;23.350;2023-04-05T04:05:21;94939.13;;;0.96;100.00
14067;BME280;7108;42.684;23.350;2023-04-05T04:07:46;94948.47;;;0.94;100.00
14067;BME280;7108;42.684;23.350;2023-04-05T04:10:14;94950.06;;;0.95;100.00
14067;BME280;7108;42.684;23.350;2023-04-05T04:12:42;94960.16;;;0.93;100.00
14067;BME280;7108;42.684;23.350;2023-04-05T04:15:07;94950.59;;;0.83;100.00
14067;BME280;7108;42.684;23.350;2023-04-05T04:17:34;94954.50;;;0.86;100.00
14067;BME280;7108;42.684;23.350;2023-04-05T04:20:01;94938.78;;;0.89;100.00
14067;BME280;7108;42.684;23.350;2023-04-05T04:22:32;94936.75;;;0.86;100.00
14067;BME280;7108;42.684;23.350;2023-04-05T04:24:58;94958.34;;;1.02;100.00
14067;BME280;7108;42.684;23.350;2023-04-05T04:27:28;94947.53;;;0.90;100.00
14067;BME280;7108;42.684;23.350;2023-04-05T04:29:54;94950.50;;;0.97;100.00
14067;BME280;7108;42.684;23.350;2023-04-05T04:32:27;94945.34;;;0.92;100.00
14067;BME280;7108;42.684;23.350;2023-04-05T04:35:15;94958.66;;;1.00;100.00
14067;BME280;7108;42.684;23.350;2023-04-05T04:37:46;94956.19;;;1.04;100.00
14067;BME280;7108;42.684;23.350;2023-04-05T04:40:15;94950.50;;;0.97;100.00
14067;BME280;7108;42.684;23.350;2023-04-05T04:42:42;94945.56;;;1.04;100.00
14067;BME280;7108;42.684;23.350;2023-04-05T04:45:15;94952.91;;;1.07;100.00
14067;BME280;7108;42.684;23.350;2023-04-05T04:47:46;94959.59;;;1.04;100.00
14067;BME280;7108;42.684;23.350;2023-04-05T04:50:12;94961.53;;;1.12;100.00
14067;BME280;7108;42.684;23.350;2023-04-05T04:52:38;94953.03;;;1.02;100.00
14067;BME280;7108;42.684;23.350;2023-04-05T04:55:08;94951.06;;;1.07;100.00
14067;BME280;7108;42.684;23.350;2023-04-05T04:57:34;94955.56;;;1.07;100.00
14067;BME280;7108;42.684;23.350;2023-04-05T04:59:59;94953.34;;;1.00;100.00
14067;BME280;7108;42.684;23.350;2023-04-05T05:02:28;94945.94;;;1.11;100.00
14067;BME280;7108;42.684;23.350;2023-04-05T05:04:53;94958.13;;;1.20;100.00
14067;BME280;7108;42.684;23.350;2023-04-05T05:07:19;94951.09;;;1.16;100.00
14067;BME280;7108;42.684;23.350;2023-04-05T05:09:45;94956.56;;;1.19;100.00
14067;BME280;7108;42.684;23.350;2023-04-05T05:12:13;94953.75;;;1.16;100.00
14067;BME280;7108;42.684;23.350;2023-04-05T05:14:39;94957.13;;;1.08;100.00
14067;BME280;7108;42.684;23.350;2023-04-05T05:17:04;94949.78;;;1.05;100.00
14067;BME280;7108;42.684;23.350;2023-04-05T05:19:30;94965.22;;;1.03;100.00
14067;BME280;7108;42.684;23.350;2023-04-05T05:21:56;94949.66;;;1.10;100.00
14067;BME280;7108;42.684;23.350;2023-04-05T05:24:22;94954.00;;;1.06;100.00
14067;BME280;7108;42.684;23.350;2023-04-05T05:26:47;94962.03;;;1.23;100.00
14067;BME280;7108;42.684;23.350;2023-04-05T05:29:13;94955.50;;;1.28;100.00
14067;BME280;7108;42.684;23.350;2023-04-05T05:31:38;94961.88;;;1.19;100.00
14067;BME280;7108;42.684;23.350;2023-04-05T05:34:04;94953.25;;;1.14;100.00
14067;BME280;7108;42.684;23.350;2023-04-05T05:36:30;94964.53;;;1.19;100.00
14067;BME280;7108;42.684;23.350;2023-04-05T05:38:56;94972.66;;;1.23;100.00
14067;BME280;7108;42.684;23.350;2023-04-05T05:41:21;94953.56;;;1.12;100.00
14067;BME280;7108;42.684;23.350;2023-04-05T05:43:47;94962.44;;;1.08;100.00
14067;BME280;7108;42.684;23.350;2023-04-05T05:46:12;94959.56;;;1.26;100.00
14067;BME280;7108;42.684;23.350;2023-04-05T05:48:38;94959.88;;;1.25;100.00
14067;BME280;7108;42.684;23.350;2023-04-05T05:51:03;94963.97;;;1.30;100.00
14067;BME280;7108;42.684;23.350;2023-04-05T05:53:35;94956.59;;;1.27;100.00
14067;BME280;7108;42.684;23.350;2023-04-05T05:56:01;94953.84;;;1.41;100.00
14067;BME280;7108;42.684;23.350;2023-04-05T05:58:26;94952.34;;;1.57;100.00
14067;BME280;7108;42.684;23.350;2023-04-05T06:00:52;94951.53;;;1.48;100.00
14067;BME280;7108;42.684;23.350;2023-04-05T06:03:21;94946.06;;;1.44;100.00
14067;BME280;7108;42.684;23.350;2023-04-05T06:05:55;94943.38;;;1.36;100.00
14067;BME280;7108;42.684;23.350;2023-04-05T06:08:22;94946.72;;;1.50;100.00
14067;BME280;7108;42.684;23.350;2023-04-05T06:10:48;94961.97;;;1.44;100.00
14067;BME280;7108;42.684;23.350;2023-04-05T06:13:14;94962.59;;;1.41;100.00
14067;BME280;7108;42.684;23.350;2023-04-05T06:15:41;94963.84;;;1.44;100.00
14067;BME280;7108;42.684;23.350;2023-04-05T06:18:07;94967.31;;;1.53;100.00
14067;BME280;7108;42.684;23.350;2023-04-05T06:20:32;94969.38;;;1.64;100.00
14067;BME280;7108;42.684;23.350;2023-04-05T06:22:58;94966.72;;;1.64;100.00
14067;BME280;7108;42.684;23.350;2023-04-05T06:28:17;94960.66;;;1.72;100.00
14067;BME280;7108;42.684;23.350;2023-04-05T06:30:43;94965.38;;;1.84;100.00
14067;BME280;7108;42.684;23.350;2023-04-05T06:33:09;94967.09;;;1.80;100.00
14067;BME280;7108;42.684;23.350;2023-04-05T06:35:34;94970.50;;;1.80;100.00
14067;BME280;7108;42.684;23.350;2023-04-05T06:38:00;94961.91;;;1.75;100.00
14067;BME280;7108;42.684;23.350;2023-04-05T06:40:25;94967.44;;;1.87;100.00
14067;BME280;7108;42.684;23.350;2023-04-05T06:42:51;94963.69;;;1.96;100.00
14067;BME280;7108;42.684;23.350;2023-04-05T06:45:16;94986.38;;;2.10;100.00
14067;BME280;7108;42.684;23.350;2023-04-05T06:47:43;94983.69;;;2.02;100.00
14067;BME280;7108;42.684;23.350;2023-04-05T06:50:08;94971.34;;;2.06;100.00
14067;BME280;7108;42.684;23.350;2023-04-05T06:52:35;94976.50;;;2.11;100.00
14067;BME280;7108;42.684;23.350;2023-04-05T06:55:00;94979.66;;;2.13;100.00
14067;BME280;7108;42.684;23.350;2023-04-05T06:57:26;94990.59;;;2.03;100.00
14067;BME280;7108;42.684;23.350;2023-04-05T06:59:52;94994.03;;;2.20;100.00
14067;BME280;7108;42.684;23.350;2023-04-05T07:02:19;94982.13;;;2.09;100.00
14067;BME280;7108;42.684;23.350;2023-04-05T07:04:44;94994.81;;;2.29;100.00
14067;BME280;7108;42.684;23.350;2023-04-05T07:07:11;94994.69;;;2.34;100.00
14067;BME280;7108;42.684;23.350;2023-04-05T07:09:38;94984.34;;;2.33;100.00
14067;BME280;7108;42.684;23.350;2023-04-05T07:12:04;95004.56;;;2.42;100.00
14067;BME280;7108;42.684;23.350;2023-04-05T07:14:35;95002.34;;;2.44;100.00
14067;BME280;7108;42.684;23.350;2023-04-05T07:17:00;95005.16;;;2.39;100.00
14067;BME280;7108;42.684;23.350;2023-04-05T07:19:26;95005.16;;;2.39;100.00
14067;BME280;7108;42.684;23.350;2023-04-05T07:21:52;95008.91;;;2.47;100.00
14067;BME280;7108;42.684;23.350;2023-04-05T07:24:17;95004.69;;;2.37;100.00
14067;BME280;7108;42.684;23.350;2023-04-05T07:26:43;95010.47;;;2.39;100.00
14067;BME280;7108;42.684;23.350;2023-04-05T07:29:10;95023.16;;;2.42;100.00
14067;BME280;7108;42.684;23.350;2023-04-05T07:31:37;95018.75;;;2.29;100.00
14067;BME280;7108;42.684;23.350;2023-04-05T07:34:03;95023.41;;;2.15;100.00
14067;BME280;7108;42.684;23.350;2023-04-05T07:36:28;95023.44;;;2.24;100.00
14067;BME280;7108;42.684;23.350;2023-04-05T07:38:58;95030.00;;;2.18;100.00
14067;BME280;7108;42.684;23.350;2023-04-05T07:41:25;95007.47;;;2.07;100.00
14067;BME280;7108;42.684;23.350;2023-04-05T07:43:51;95019.16;;;2.06;100.00
14067;BME280;7108;42.684;23.350;2023-04-05T07:46:16;95027.47;;;2.13;100.00
14067;BME280;7108;42.684;23.350;2023-04-05T07:48:42;95031.25;;;2.29;100.00
14067;BME280;7108;42.684;23.350;2023-04-05T07:51:08;95035.00;;;2.28;100.00
14067;BME280;7108;42.684;23.350;2023-04-05T07:53:35;95039.06;;;2.17;100.00
14067;BME280;7108;42.684;23.350;2023-04-05T07:56:11;95040.94;;;2.16;100.00
14067;BME280;7108;42.684;23.350;2023-04-05T07:58:40;95048.75;;;2.13;100.00
14067;BME280;7108;42.684;23.350;2023-04-05T08:01:08;95050.75;;;2.16;100.00
14067;BME280;7108;42.684;23.350;2023-04-05T08:03:34;95053.56;;;2.11;100.00
14067;BME280;7108;42.684;23.350;2023-04-05T08:06:14;95069.66;;;2.06;100.00
14067;BME280;7108;42.684;23.350;2023-04-05T08:08:43;95055.56;;;1.97;100.00
14067;BME280;7108;42.684;23.350;2023-04-05T08:11:09;95056.06;;;2.07;100.00
14067;BME280;7108;42.684;23.350;2023-04-05T08:13:35;95048.22;;;2.02;100.00
14067;BME280;7108;42.684;23.350;2023-04-05T08:16:03;95068.28;;;2.17;100.00
14067;BME280;7108;42.684;23.350;2023-04-05T08:18:28;95058.00;;;2.24;100.00
14067;BME280;7108;42.684;23.350;2023-04-05T08:20:55;95053.75;;;2.23;100.00
14067;BME280;7108;42.684;23.350;2023-04-05T08:23:21;95070.63;;;2.18;100.00
14067;BME280;7108;42.684;23.350;2023-04-05T08:25:47;95054.53;;;2.15;100.00
14067;BME280;7108;42.684;23.350;2023-04-05T08:28:12;95065.44;;;2.13;100.00
14067;BME280;7108;42.684;23.350;2023-04-05T08:30:38;95059.22;;;2.18;100.00
14067;BME280;7108;42.684;23.350;2023-04-05T08:33:04;95062.38;;;2.20;100.00
14067;BME280;7108;42.684;23.350;2023-04-05T08:35:30;95063.59;;;2.14;100.00
14067;BME280;7108;42.684;23.350;2023-04-05T08:37:56;95073.16;;;2.32;100.00
14067;BME280;7108;42.684;23.350;2023-04-05T08:40:32;95066.59;;;2.38;100.00
14067;BME280;7108;42.684;23.350;2023-04-05T08:45:52;95067.41;;;2.47;100.00
14067;BME280;7108;42.684;23.350;2023-04-05T08:48:19;95073.22;;;2.57;100.00
14067;BME280;7108;42.684;23.350;2023-04-05T08:50:52;95070.84;;;2.47;100.00
14067;BME280;7108;42.684;23.350;2023-04-05T08:53:18;95085.22;;;2.46;100.00
14067;BME280;7108;42.684;23.350;2023-04-05T08:55:48;95072.56;;;2.43;100.00
14067;BME280;7108;42.684;23.350;2023-04-05T08:58:15;95086.59;;;2.27;100.00
14067;BME280;7108;42.684;23.350;2023-04-05T09:00:41;95093.28;;;2.16;100.00
14067;BME280;7108;42.684;23.350;2023-04-05T09:03:12;95094.81;;;2.08;100.00
14067;BME280;7108;42.684;23.350;2023-04-05T09:05:40;95100.63;;;2.10;100.00
14067;BME280;7108;42.684;23.350;2023-04-05T09:08:10;95108.91;;;2.09;100.00
14067;BME280;7108;42.684;23.350;2023-04-05T09:10:36;95093.94;;;2.21;100.00
14067;BME280;7108;42.684;23.350;2023-04-05T09:13:02;95107.91;;;2.44;100.00
14067;BME280;7108;42.684;23.350;2023-04-05T09:15:28;95102.41;;;2.40;100.00
14067;BME280;7108;42.684;23.350;2023-04-05T09:17:55;95102.75;;;2.39;100.00
14067;BME280;7108;42.684;23.350;2023-04-05T09:20:21;95101.59;;;2.23;100.00
14067;BME280;7108;42.684;23.350;2023-04-05T09:22:47;95111.78;;;2.29;100.00
14067;BME280;7108;42.684;23.350;2023-04-05T09:25:39;95103.97;;;2.33;100.00
14067;BME280;7108;42.684;23.350;2023-04-05T09:28:06;95100.41;;;2.37;100.00
14067;BME280;7108;42.684;23.350;2023-04-05T09:30:32;95089.63;;;2.51;100.00
14067;BME280;7108;42.684;23.350;2023-04-05T09:32:59;95096.50;;;2.60;100.00
14067;BME280;7108;42.684;23.350;2023-04-05T09:35:26;95099.47;;;2.50;100.00
14067;BME280;7108;42.684;23.350;2023-04-05T09:37:57;95081.63;;;2.42;100.00
14067;BME280;7108;42.684;23.350;2023-04-05T09:40:23;95085.22;;;2.46;100.00
14067;BME280;7108;42.684;23.350;2023-04-05T09:43:04;95078.84;;;2.47;100.00
14067;BME280;7108;42.684;23.350;2023-04-05T09:45:29;95083.25;;;2.77;100.00
14067;BME280;7108;42.684;23.350;2023-04-05T09:48:02;95078.25;;;2.92;100.00
14067;BME280;7108;42.684;23.350;2023-04-05T09:50:28;95079.66;;;2.81;100.00
14067;BME280;7108;42.684;23.350;2023-04-05T09:53:11;95071.47;;;3.37;100.00
14067;BME280;7108;42.684;23.350;2023-04-05T09:55:40;95077.84;;;3.61;100.00
14067;BME280;7108;42.684;23.350;2023-04-05T09:58:19;95073.03;;;3.38;100.00
14067;BME280;7108;42.684;23.350;2023-04-05T10:00:49;95080.44;;;3.16;100.00
14067;BME280;7108;42.684;23.350;2023-04-05T10:03:20;95076.22;;;3.15;100.00
14067;BME280;7108;42.684;23.350;2023-04-05T10:05:45;95081.69;;;3.18;100.00
14067;BME280;7108;42.684;23.350;2023-04-05T10:08:13;95080.13;;;3.17;100.00
14067;BME280;7108;42.684;23.350;2023-04-05T10:10:45;95077.28;;;2.97;100.00
14067;BME280;7108;42.684;23.350;2023-04-05T10:13:12;95086.56;;;2.82;100.00
14067;BME280;7108;42.684;23.350;2023-04-05T10:15:39;95096.38;;;2.65;100.00
14067;BME280;7108;42.684;23.350;2023-04-05T10:18:20;95091.88;;;2.82;100.00
14067;BME280;7108;42.684;23.350;2023-04-05T10:20:49;95087.50;;;3.03;100.00
14067;BME280;7108;42.684;23.350;2023-04-05T10:23:23;95092.78;;;3.20;100.00
14067;BME280;7108;42.684;23.350;2023-04-05T10:30:58;95093.25;;;2.71;100.00
14067;BME280;7108;42.684;23.350;2023-04-05T10:33:34;95099.34;;;2.72;100.00
14067;BME280;7108;42.684;23.350;2023-04-05T10:39:02;95077.63;;;3.21;100.00
14067;BME280;7108;42.684;23.350;2023-04-05T10:41:44;95090.28;;;3.15;100.00
14067;BME280;7108;42.684;23.350;2023-04-05T10:44:11;95084.03;;;3.20;100.00
14067;BME280;7108;42.684;23.350;2023-04-05T10:46:39;95085.59;;;3.21;100.00
14067;BME280;7108;42.684;23.350;2023-04-05T10:51:44;95078.66;;;3.45;100.00
14067;BME280;7108;42.684;23.350;2023-04-05T10:54:10;95090.88;;;3.37;100.00
14067;BME280;7108;42.684;23.350;2023-04-05T10:56:36;95090.72;;;3.42;100.00
14067;BME280;7108;42.684;23.350;2023-04-05T10:59:03;95095.75;;;3.35;100.00
14067;BME280;7108;42.684;23.350;2023-04-05T11:01:30;95099.69;;;3.29;100.00
14067;BME280;7108;42.684;23.350;2023-04-05T11:04:10;95097.34;;;3.28;100.00
14067;BME280;7108;42.684;23.350;2023-04-05T11:06:35;95095.59;;;3.32;100.00
14067;BME280;7108;42.684;23.350;2023-04-05T11:09:17;95114.25;;;3.32;100.00
14067;BME280;7108;42.684;23.350;2023-04-05T11:11:49;95112.53;;;3.11;100.00
14067;BME280;7108;42.684;23.350;2023-04-05T11:16:50;95104.34;;;3.41;100.00
14067;BME280;7108;42.684;23.350;2023-04-05T11:22:13;95112.28;;;3.83;100.00
14067;BME280;7108;42.684;23.350;2023-04-05T11:25:05;95112.09;;;3.88;100.00
14067;BME280;7108;42.684;23.350;2023-04-05T11:27:32;95095.03;;;3.81;100.00
14067;BME280;7108;42.684;23.350;2023-04-05T11:30:05;95090.72;;;3.51;100.00
14067;BME280;7108;42.684;23.350;2023-04-05T11:32:44;95089.88;;;3.76;100.00
14067;BME280;7108;42.684;23.350;2023-04-05T11:35:14;95094.50;;;3.50;100.00
14067;BME280;7108;42.684;23.350;2023-04-05T11:43:09;95087.09;;;3.64;100.00
14067;BME280;7108;42.684;23.350;2023-04-05T11:45:37;95093.16;;;3.81;100.00
14067;BME280;7108;42.684;23.350;2023-04-05T11:48:11;95077.19;;;3.73;100.00
14067;BME280;7108;42.684;23.350;2023-04-05T11:50:39;95098.78;;;3.88;100.00
14067;BME280;7108;42.684;23.350;2023-04-05T11:55:42;95074.69;;;3.76;100.00
14067;BME280;7108;42.684;23.350;2023-04-05T11:58:18;95093.91;;;3.82;100.00
14067;BME280;7108;42.684;23.350;2023-04-05T12:00:46;95095.03;;;3.81;100.00
14067;BME280;7108;42.684;23.350;2023-04-05T12:03:15;95089.53;;;3.86;100.00
14067;BME280;7108;42.684;23.350;2023-04-05T12:06:03;95086.44;;;3.67;100.00
14067;BME280;7108;42.684;23.350;2023-04-05T12:08:41;95092.59;;;3.59;100.00
14067;BME280;7108;42.684;23.350;2023-04-05T12:11:09;95086.16;;;3.60;100.00
14067;BME280;7108;42.684;23.350;2023-04-05T12:13:35;95086.44;;;3.67;100.00
14067;BME280;7108;42.684;23.350;2023-04-05T12:16:02;95094.03;;;3.93;100.00
14067;BME280;7108;42.684;23.350;2023-04-05T12:18:36;95097.63;;;3.97;100.00
14067;BME280;7108;42.684;23.350;2023-04-05T12:21:03;95097.38;;;3.90;100.00
14067;BME280;7108;42.684;23.350;2023-04-05T12:23:30;95094.22;;;3.88;100.00
14067;BME280;7108;42.684;23.350;2023-04-05T12:25:56;95077.00;;;3.86;100.00
14067;BME280;7108;42.684;23.350;2023-04-05T12:28:22;95082.09;;;4.08;100.00
14067;BME280;7108;42.684;23.350;2023-04-05T12:33:13;95088.34;;;3.66;100.00
14067;BME280;7108;42.684;23.350;2023-04-05T12:35:39;95080.56;;;3.90;100.00
14067;BME280;7108;42.684;23.350;2023-04-05T12:38:05;95084.59;;;4.04;100.00
14067;BME280;7108;42.684;23.350;2023-04-05T12:40:35;95089.03;;;3.92;100.00
14067;BME280;7108;42.684;23.350;2023-04-05T12:43:05;95086.38;;;3.92;100.00
14067;BME280;7108;42.684;23.350;2023-04-05T12:45:32;95087.59;;;4.03;100.00
14067;BME280;7108;42.684;23.350;2023-04-05T12:48:07;95087.66;;;3.86;100.00
14067;BME280;7108;42.684;23.350;2023-04-05T12:50:34;95089.47;;;4.02;100.00
14067;BME280;7108;42.684;23.350;2023-04-05T12:53:04;95089.00;;;4.00;100.00
14067;BME280;7108;42.684;23.350;2023-04-05T12:55:29;95093.50;;;3.71;100.00
14067;BME280;7108;42.684;23.350;2023-04-05T12:57:59;95103.41;;;3.45;100.00
14067;BME280;7108;42.684;23.350;2023-04-05T13:00:27;95085.03;;;3.61;100.00
14067;BME280;7108;42.684;23.350;2023-04-05T13:02:55;95079.94;;;3.93;100.00
14067;BME280;7108;42.684;23.350;2023-04-05T13:05:26;95098.19;;;3.66;100.00
14067;BME280;7108;42.684;23.350;2023-04-05T13:07:52;95090.81;;;3.80;100.00
14067;BME280;7108;42.684;23.350;2023-04-05T13:10:22;95104.66;;;3.56;100.00
14067;BME280;7108;42.684;23.350;2023-04-05T13:12:48;95110.59;;;3.53;100.00
14067;BME280;7108;42.684;23.350;2023-04-05T13:15:17;95091.78;;;3.58;100.00
14067;BME280;7108;42.684;23.350;2023-04-05T13:17:43;95106.78;;;3.80;100.00
14067;BME280;7108;42.684;23.350;2023-04-05T13:20:14;95109.00;;;3.69;100.00
14067;BME280;7108;42.684;23.350;2023-04-05T13:22:40;95102.38;;;3.92;100.00
14067;BME280;7108;42.684;23.350;2023-04-05T13:25:06;95103.63;;;3.94;100.00
14067;BME280;7108;42.684;23.350;2023-04-05T13:27:32;95097.78;;;4.01;100.00
14067;BME280;7108;42.684;23.350;2023-04-05T13:29:57;95097.03;;;3.92;100.00
14067;BME280;7108;42.684;23.350;2023-04-05T13:32:23;95088.84;;;4.05;100.00
14067;BME280;7108;42.684;23.350;2023-04-05T13:34:48;95095.22;;;3.76;100.00
14067;BME280;7108;42.684;23.350;2023-04-05T13:37:14;95087.88;;;3.56;100.00
14067;BME280;7108;42.684;23.350;2023-04-05T13:39:40;95095.69;;;3.61;100.00
14067;BME280;7108;42.684;23.350;2023-04-05T13:42:05;95086.91;;;3.69;100.00
14067;BME280;7108;42.684;23.350;2023-04-05T13:44:31;95091.59;;;3.72;100.00
14067;BME280;7108;42.684;23.350;2023-04-05T13:46:56;95084.47;;;3.22;100.00
14067;BME280;7108;42.684;23.350;2023-04-05T13:49:22;95093.91;;;3.02;100.00
14067;BME280;7108;42.684;23.350;2023-04-05T13:51:47;95098.25;;;2.98;100.00